createdAt,value
2023-04-26T00:00:32.577Z,5.8
2023-04-26T00:01:48.870Z,5.8
2023-04-26T00:03:05.151Z,5.8
2023-04-26T00:04:21.442Z,5.8
2023-04-26T00:05:37.739Z,5.8
2023-04-26T00:06:54.033Z,5.8
2023-04-26T00:08:09.351Z,5.8
2023-04-26T00:09:25.641Z,5.9
2023-04-26T00:10:41.947Z,5.8
2023-04-26T00:11:58.239Z,5.8
2023-04-26T00:13:14.535Z,5.8
2023-04-26T00:14:30.829Z,5.8
2023-04-26T00:15:47.126Z,5.8
2023-04-26T00:17:03.409Z,5.8
2023-04-26T00:18:19.720Z,5.8
2023-04-26T00:19:36.004Z,5.8
2023-04-26T00:20:52.306Z,5.8
2023-04-26T00:22:08.583Z,5.7
2023-04-26T00:23:24.881Z,5.8
2023-04-26T00:24:40.206Z,5.7
2023-04-26T00:25:56.494Z,5.7
2023-04-26T00:27:12.779Z,5.7
2023-04-26T00:28:29.067Z,5.7
2023-04-26T00:29:45.366Z,5.7
2023-04-26T00:31:01.683Z,5.6
2023-04-26T00:32:16.974Z,5.6
2023-04-26T00:33:33.285Z,5.7
2023-04-26T00:34:49.561Z,5.6
2023-04-26T00:36:05.863Z,5.7
2023-04-26T00:37:22.160Z,5.7
2023-04-26T00:38:38.472Z,5.6
2023-04-26T00:39:54.742Z,5.6
2023-04-26T00:41:11.035Z,5.7
2023-04-26T00:42:27.326Z,5.7
2023-04-26T00:43:43.624Z,5.7
2023-04-26T00:44:59.911Z,5.7
2023-04-26T00:46:16.243Z,5.7
2023-04-26T00:47:32.519Z,5.7
2023-04-26T00:48:47.815Z,5.7
2023-04-26T00:50:04.110Z,5.6
2023-04-26T00:51:20.400Z,5.7
2023-04-26T00:52:36.697Z,5.6
2023-04-26T00:53:52.990Z,5.6
2023-04-26T00:55:09.310Z,5.6
2023-04-26T00:56:25.587Z,5.6
2023-04-26T00:57:41.881Z,5.6
2023-04-26T00:58:58.194Z,5.7
2023-04-26T01:01:30.764Z,5.7
2023-04-26T01:02:47.067Z,5.7
2023-04-26T01:04:03.370Z,5.8
2023-04-26T01:05:18.667Z,5.7
2023-04-26T01:06:34.962Z,5.7
2023-04-26T01:07:51.255Z,5.8
2023-04-26T01:09:07.567Z,5.8
2023-04-26T01:10:23.862Z,5.8
2023-04-26T01:11:40.143Z,5.7
2023-04-26T01:12:56.427Z,5.7
2023-04-26T01:14:12.733Z,5.7
2023-04-26T01:15:29.015Z,5.8
2023-04-26T01:16:45.307Z,5.7
2023-04-26T01:18:01.620Z,5.7
2023-04-26T01:19:17.909Z,5.8
2023-04-26T01:20:34.199Z,5.8
2023-04-26T01:21:49.521Z,5.8
2023-04-26T01:23:05.803Z,5.8
2023-04-26T01:24:22.085Z,5.8
2023-04-26T01:25:38.396Z,5.8
2023-04-26T01:26:54.702Z,5.8
2023-04-26T01:28:10.972Z,5.8
2023-04-26T01:29:27.272Z,5.8
2023-04-26T01:30:43.556Z,5.7
2023-04-26T01:31:59.853Z,5.7
2023-04-26T01:33:16.151Z,5.7
2023-04-26T01:34:32.452Z,5.7
2023-04-26T01:35:48.745Z,5.7
2023-04-26T01:37:05.043Z,5.7
2023-04-26T01:38:20.341Z,5.7
2023-04-26T01:39:36.630Z,5.7
2023-04-26T01:40:52.944Z,5.6
2023-04-26T01:42:09.224Z,5.6
2023-04-26T01:43:25.532Z,5.6
2023-04-26T01:44:41.820Z,5.5
2023-04-26T01:45:58.108Z,5.5
2023-04-26T01:47:14.422Z,5.4
2023-04-26T01:48:30.706Z,5.4
2023-04-26T01:49:46.987Z,5.4
2023-04-26T01:51:03.305Z,5.4
2023-04-26T01:52:19.580Z,5.4
2023-04-26T01:53:35.000Z,5.3
2023-04-26T01:54:51.178Z,5.3
2023-04-26T01:56:07.492Z,5.3
2023-04-26T01:57:23.768Z,5.3
2023-04-26T01:58:40.065Z,5.2
2023-04-26T01:59:56.372Z,5.2
2023-04-26T02:01:12.650Z,5.2
2023-04-26T02:02:28.965Z,5.1
2023-04-26T02:03:45.270Z,5.1
2023-04-26T02:05:01.553Z,5.1
2023-04-26T02:06:17.847Z,5
2023-04-26T02:07:34.154Z,5.1
2023-04-26T02:08:50.429Z,5
2023-04-26T02:10:06.719Z,5
2023-04-26T02:11:22.025Z,5
2023-04-26T02:12:38.330Z,5
2023-04-26T02:13:54.614Z,5
2023-04-26T02:15:10.912Z,4.9
2023-04-26T02:16:27.217Z,4.9
2023-04-26T02:17:43.508Z,4.9
2023-04-26T02:18:59.802Z,4.9
2023-04-26T02:20:16.089Z,4.8
2023-04-26T02:21:32.375Z,4.8
2023-04-26T02:24:04.976Z,4.8
2023-04-26T02:25:21.268Z,4.8
2023-04-26T02:26:37.553Z,4.8
2023-04-26T02:27:52.870Z,4.8
2023-04-26T02:29:09.170Z,4.8
2023-04-26T02:30:25.467Z,4.8
2023-04-26T02:31:41.745Z,4.8
2023-04-26T02:32:58.042Z,4.8
2023-04-26T02:34:14.355Z,4.8
2023-04-26T02:35:30.633Z,4.8
2023-04-26T02:36:46.928Z,4.7
2023-04-26T02:38:03.233Z,4.8
2023-04-26T02:39:19.000Z,4.8
2023-04-26T02:40:35.807Z,4.7
2023-04-26T02:41:52.109Z,4.7
2023-04-26T02:43:08.395Z,4.7
2023-04-26T02:44:23.718Z,4.7
2023-04-26T02:45:40.003Z,4.7
2023-04-26T02:46:56.313Z,4.7
2023-04-26T02:48:12.594Z,4.7
2023-04-26T02:49:28.887Z,4.6
2023-04-26T02:50:45.186Z,4.6
2023-04-26T02:52:01.484Z,4.6
2023-04-26T02:53:17.767Z,4.6
2023-04-26T02:54:34.068Z,4.6
2023-04-26T02:55:50.370Z,4.6
2023-04-26T02:57:06.648Z,4.6
2023-04-26T02:58:22.955Z,4.6
2023-04-26T02:59:39.244Z,4.6
2023-04-26T03:00:54.560Z,4.6
2023-04-26T03:02:10.850Z,4.6
2023-04-26T03:03:27.152Z,4.5
2023-04-26T03:04:43.442Z,4.5
2023-04-26T03:05:59.748Z,4.5
2023-04-26T03:07:16.030Z,4.5
2023-04-26T03:08:32.331Z,4.4
2023-04-26T03:11:04.903Z,4.3
2023-04-26T03:12:21.210Z,4.3
2023-04-26T03:13:37.490Z,4.3
2023-04-26T03:14:53.802Z,4.2
2023-04-26T03:16:10.101Z,4.2
2023-04-26T03:17:25.398Z,4.2
2023-04-26T03:18:41.644Z,4.3
2023-04-26T03:19:57.941Z,4.2
2023-04-26T03:21:14.179Z,4.2
2023-04-26T03:22:30.422Z,4.2
2023-04-26T03:23:46.666Z,4.2
2023-04-26T03:25:02.906Z,4.2
2023-04-26T03:26:19.157Z,4.3
2023-04-26T03:27:35.390Z,4.3
2023-04-26T03:28:51.628Z,4.3
2023-04-26T03:30:07.882Z,4.3
2023-04-26T03:31:24.125Z,4.3
2023-04-26T03:32:40.360Z,4.2
2023-04-26T03:33:55.622Z,4.1
2023-04-26T03:35:11.853Z,4.2
2023-04-26T03:36:28.105Z,4.1
2023-04-26T03:37:44.335Z,4.1
2023-04-26T03:39:00.583Z,4.1
2023-04-26T03:40:16.811Z,4
2023-04-26T03:41:33.068Z,4
2023-04-26T03:42:49.302Z,4
2023-04-26T03:44:05.531Z,4
2023-04-26T03:45:21.770Z,4
2023-04-26T03:46:38.023Z,4
2023-04-26T03:47:54.249Z,4
2023-04-26T03:49:10.497Z,4
2023-04-26T03:50:25.751Z,4
2023-04-26T03:51:42.002Z,4
2023-04-26T03:52:58.235Z,4
2023-04-26T03:54:14.481Z,4
2023-04-26T03:55:30.709Z,3.9
2023-04-26T03:56:46.953Z,3.9
2023-04-26T03:58:03.197Z,3.9
2023-04-26T03:59:19.437Z,4
2023-04-26T04:00:35.000Z,4
2023-04-26T04:01:51.917Z,4
2023-04-26T04:03:08.152Z,4
2023-04-26T04:04:24.397Z,3.9
2023-04-26T04:05:40.646Z,3.9
2023-04-26T04:06:55.888Z,3.9
2023-04-26T04:08:12.136Z,3.9
2023-04-26T04:09:28.383Z,3.9
2023-04-26T04:10:44.614Z,3.9
2023-04-26T04:12:00.000Z,3.9
2023-04-26T04:13:17.094Z,3.9
2023-04-26T04:14:33.346Z,3.9
2023-04-26T04:15:49.589Z,3.9
2023-04-26T04:17:05.815Z,3.9
2023-04-26T04:18:22.058Z,3.9
2023-04-26T04:19:38.300Z,3.9
2023-04-26T04:20:54.549Z,3.9
2023-04-26T04:22:10.783Z,3.9
2023-04-26T04:23:26.042Z,3.9
2023-04-26T04:24:42.278Z,3.9
2023-04-26T04:25:58.527Z,4
2023-04-26T04:27:14.753Z,4
2023-04-26T04:28:31.013Z,4
2023-04-26T04:29:47.236Z,4
2023-04-26T04:31:03.479Z,4
2023-04-26T04:32:19.725Z,4
2023-04-26T04:33:35.962Z,4
2023-04-26T04:34:52.211Z,4
2023-04-26T04:36:08.444Z,4.1
2023-04-26T04:37:24.684Z,4.1
2023-04-26T04:38:40.924Z,4.1
2023-04-26T04:39:56.171Z,4.1
2023-04-26T04:41:12.408Z,4.1
2023-04-26T04:42:28.668Z,4.2
2023-04-26T04:43:44.891Z,4.1
2023-04-26T04:45:01.131Z,4.2
2023-04-26T04:46:17.380Z,4.2
2023-04-26T04:47:32.636Z,4.2
2023-04-26T04:48:48.889Z,4.3
2023-04-26T04:50:05.131Z,4.3
2023-04-26T04:51:21.355Z,4.3
2023-04-26T04:52:37.597Z,4.3
2023-04-26T04:53:53.849Z,4.3
2023-04-26T04:55:10.089Z,4.3
2023-04-26T04:56:26.315Z,4.3
2023-04-26T04:57:42.567Z,4.4
2023-04-26T04:58:58.799Z,4.4
2023-04-26T05:00:15.049Z,4.4
2023-04-26T05:01:31.286Z,4.4
2023-04-26T05:02:47.527Z,4.5
2023-04-26T05:04:02.783Z,4.5
2023-04-26T05:05:19.022Z,4.5
2023-04-26T05:06:35.270Z,4.5
2023-04-26T05:07:51.508Z,4.6
2023-04-26T05:09:07.000Z,4.5
2023-04-26T05:10:23.978Z,4.6
2023-04-26T05:11:40.224Z,4.6
2023-04-26T05:12:56.455Z,4.6
2023-04-26T05:14:12.705Z,4.7
2023-04-26T05:15:28.940Z,4.8
2023-04-26T05:16:45.186Z,4.8
2023-04-26T05:18:01.422Z,4.8
2023-04-26T05:19:17.673Z,4.9
2023-04-26T05:20:32.915Z,5
2023-04-26T05:21:49.164Z,5
2023-04-26T05:23:05.000Z,5.1
2023-04-26T05:24:21.634Z,5.1
2023-04-26T05:25:37.000Z,5.2
2023-04-26T05:26:54.120Z,5.2
2023-04-26T05:28:10.362Z,5.2
2023-04-26T05:29:26.600Z,5.3
2023-04-26T05:30:42.839Z,5.4
2023-04-26T05:31:59.075Z,5.4
2023-04-26T05:33:15.319Z,5.4
2023-04-26T05:34:31.561Z,5.5
2023-04-26T05:35:47.797Z,5.5
2023-04-26T05:37:03.066Z,5.6
2023-04-26T05:38:19.308Z,5.6
2023-04-26T05:39:35.543Z,5.7
2023-04-26T05:40:51.788Z,5.7
2023-04-26T05:42:08.024Z,5.8
2023-04-26T05:43:24.257Z,5.9
2023-04-26T05:44:40.505Z,5.9
2023-04-26T05:45:56.751Z,5.9
2023-04-26T05:47:12.978Z,6
2023-04-26T05:48:29.230Z,6
2023-04-26T05:49:45.456Z,6
2023-04-26T05:51:01.716Z,6.1
2023-04-26T05:52:17.953Z,6.2
2023-04-26T05:53:33.203Z,6.3
2023-04-26T05:54:49.445Z,6.2
2023-04-26T05:56:05.689Z,6.2
2023-04-26T05:57:21.931Z,6.4
2023-04-26T05:58:38.168Z,6.4
2023-04-26T05:59:54.414Z,6.5
2023-04-26T06:01:10.643Z,6.5
2023-04-26T06:02:26.883Z,6.6
2023-04-26T06:03:43.121Z,6.7
2023-04-26T06:04:59.366Z,6.7
2023-04-26T06:06:15.602Z,6.7
2023-04-26T06:07:31.839Z,6.8
2023-04-26T06:08:48.091Z,6.9
2023-04-26T06:10:03.353Z,6.9
2023-04-26T06:11:19.578Z,6.9
2023-04-26T06:12:35.816Z,6.9
2023-04-26T06:13:52.072Z,7
2023-04-26T06:15:08.314Z,7
2023-04-26T06:16:24.547Z,7.1
2023-04-26T06:17:40.781Z,7.2
2023-04-26T06:18:57.042Z,7.3
2023-04-26T06:20:13.274Z,7.4
2023-04-26T06:21:29.500Z,7.5
2023-04-26T06:22:45.741Z,7.5
2023-04-26T06:24:01.975Z,7.6
2023-04-26T06:25:18.225Z,7.6
2023-04-26T06:26:33.485Z,7.5
2023-04-26T06:27:49.727Z,7.5
2023-04-26T06:29:05.975Z,7.6
2023-04-26T06:30:22.211Z,7.6
2023-04-26T06:31:38.444Z,7.6
2023-04-26T06:32:54.684Z,7.7
2023-04-26T06:34:10.932Z,7.7
2023-04-26T06:35:27.170Z,7.8
2023-04-26T06:36:43.402Z,8
2023-04-26T06:37:59.640Z,7.9
2023-04-26T06:39:15.888Z,7.9
2023-04-26T06:40:32.137Z,8
2023-04-26T06:41:48.380Z,7.9
2023-04-26T06:43:03.619Z,8.1
2023-04-26T06:44:19.868Z,8.2
2023-04-26T06:45:36.100Z,8.3
2023-04-26T06:46:52.338Z,8.4
2023-04-26T06:48:08.584Z,8.5
2023-04-26T06:49:24.818Z,8.7
2023-04-26T06:50:41.063Z,8.7
2023-04-26T06:51:57.304Z,8.8
2023-04-26T06:53:13.535Z,8.9
2023-04-26T06:54:29.787Z,9.1
2023-04-26T06:57:02.253Z,9.1
2023-04-26T06:58:18.495Z,9
2023-04-26T06:59:33.763Z,9.1
2023-04-26T07:00:50.002Z,9.1
2023-04-26T07:02:06.236Z,9
2023-04-26T07:03:22.475Z,9.1
2023-04-26T07:04:38.716Z,9
2023-04-26T07:05:54.948Z,9
2023-04-26T07:07:11.188Z,9.2
2023-04-26T07:08:27.437Z,9.1
2023-04-26T07:09:43.686Z,9.2
2023-04-26T07:10:59.924Z,9.4
2023-04-26T07:12:16.149Z,9.4
2023-04-26T07:13:32.408Z,9.6
2023-04-26T07:14:48.643Z,9.3
2023-04-26T07:16:03.892Z,9.3
2023-04-26T07:17:20.128Z,9.4
2023-04-26T07:18:36.368Z,9.5
2023-04-26T07:19:52.627Z,9.7
2023-04-26T07:21:08.847Z,9.6
2023-04-26T07:22:25.086Z,9.7
2023-04-26T07:23:41.338Z,9.8
2023-04-26T07:24:57.582Z,9.7
2023-04-26T07:26:13.815Z,9.7
2023-04-26T07:27:30.046Z,9.9
2023-04-26T07:28:46.284Z,10.1
2023-04-26T07:30:02.529Z,10.2
2023-04-26T07:31:18.771Z,9.9
2023-04-26T07:32:34.035Z,9.9
2023-04-26T07:33:50.270Z,9.9
2023-04-26T07:35:06.510Z,10.2
2023-04-26T07:36:22.752Z,10.4
2023-04-26T07:37:38.985Z,10.5
2023-04-26T07:38:55.219Z,10.6
2023-04-26T07:40:11.470Z,10.8
2023-04-26T07:41:27.718Z,11
2023-04-26T07:42:43.947Z,11.2
2023-04-26T07:44:00.190Z,11.4
2023-04-26T07:45:16.431Z,11.3
2023-04-26T07:46:32.677Z,11
2023-04-26T07:47:48.928Z,10.8
2023-04-26T07:49:04.172Z,10.7
2023-04-26T07:50:20.411Z,10.7
2023-04-26T07:51:36.641Z,10.8
2023-04-26T07:52:52.887Z,10.9
2023-04-26T07:54:09.127Z,11.1
2023-04-26T07:55:25.367Z,11
2023-04-26T07:56:41.597Z,10.9
2023-04-26T07:57:57.000Z,10.9
2023-04-26T07:59:14.083Z,10.9
2023-04-26T08:00:30.314Z,10.7
2023-04-26T08:01:46.560Z,10.6
2023-04-26T08:03:02.805Z,10
2023-04-26T08:04:19.049Z,9.8
2023-04-26T08:05:34.288Z,9.6
2023-04-26T08:06:50.548Z,9.6
2023-04-26T08:08:06.775Z,9.5
2023-04-26T08:09:23.023Z,9.5
2023-04-26T08:10:39.258Z,9.4
2023-04-26T08:11:55.504Z,9.5
2023-04-26T08:13:11.749Z,9.6
2023-04-26T08:14:27.984Z,9.9
2023-04-26T08:15:44.225Z,10.3
2023-04-26T08:17:00.458Z,10.1
2023-04-26T08:18:16.696Z,10
2023-04-26T08:19:32.932Z,9.8
2023-04-26T08:20:49.179Z,9.9
2023-04-26T08:22:04.438Z,9.9
2023-04-26T08:23:20.665Z,9.8
2023-04-26T08:24:36.910Z,9.7
2023-04-26T08:25:53.173Z,9.6
2023-04-26T08:27:09.402Z,9.5
2023-04-26T08:28:25.633Z,9.4
2023-04-26T08:29:41.878Z,9.3
2023-04-26T08:30:58.101Z,9.2
2023-04-26T08:32:14.350Z,9.2
2023-04-26T08:33:30.593Z,9.2
2023-04-26T08:34:46.837Z,9.5
2023-04-26T08:36:03.073Z,9.7
2023-04-26T08:37:19.307Z,10
2023-04-26T08:38:34.573Z,10
2023-04-26T08:39:50.825Z,9.8
2023-04-26T08:41:07.060Z,9.8
2023-04-26T08:42:23.293Z,9.8
2023-04-26T08:43:39.532Z,9.9
2023-04-26T08:44:55.770Z,10.1
2023-04-26T08:46:12.013Z,10.1
2023-04-26T08:47:28.259Z,10.2
2023-04-26T08:48:44.493Z,10.1
2023-04-26T08:50:00.735Z,10
2023-04-26T08:51:16.960Z,9.9
2023-04-26T08:52:33.199Z,9.8
2023-04-26T08:53:49.452Z,9.8
2023-04-26T08:55:04.704Z,9.8
2023-04-26T08:56:20.941Z,9.7
2023-04-26T08:57:37.187Z,9.6
2023-04-26T08:58:53.427Z,9.4
2023-04-26T09:00:09.657Z,9.2
2023-04-26T09:01:25.895Z,9.1
2023-04-26T09:02:41.165Z,9.1
2023-04-26T09:03:57.411Z,9.2
2023-04-26T09:05:13.642Z,9.5
2023-04-26T09:06:29.895Z,9.8
2023-04-26T09:07:46.117Z,10.3
2023-04-26T09:09:02.356Z,10.6
2023-04-26T09:10:18.604Z,10.8
2023-04-26T09:11:34.838Z,10.4
2023-04-26T09:12:51.091Z,10.3
2023-04-26T09:14:07.331Z,10.3
2023-04-26T09:15:23.566Z,10.3
2023-04-26T09:16:39.801Z,10.3
2023-04-26T09:17:56.033Z,10.3
2023-04-26T09:19:12.408Z,10.3
2023-04-26T09:20:28.633Z,10.3
2023-04-26T09:21:44.873Z,10.1
2023-04-26T09:23:01.129Z,10
2023-04-26T09:24:17.376Z,9.7
2023-04-26T09:25:33.600Z,9.8
2023-04-26T09:26:49.848Z,9.9
2023-04-26T09:28:06.089Z,9.7
2023-04-26T09:29:22.318Z,9.7
2023-04-26T09:30:38.564Z,9.5
2023-04-26T09:31:54.794Z,9.6
2023-04-26T09:33:11.036Z,9.5
2023-04-26T09:34:27.288Z,9.4
2023-04-26T09:35:42.527Z,9.4
2023-04-26T09:36:58.780Z,9.2
2023-04-26T09:38:15.015Z,9.2
2023-04-26T09:39:31.265Z,9.2
2023-04-26T09:40:47.496Z,9.3
2023-04-26T09:42:03.747Z,9.3
2023-04-26T09:43:19.981Z,9.2
2023-04-26T09:44:36.220Z,9.2
2023-04-26T09:45:52.453Z,9.3
2023-04-26T09:47:08.697Z,9.2
2023-04-26T09:48:24.925Z,9.3
2023-04-26T09:49:41.186Z,9.4
2023-04-26T09:50:57.424Z,9.4
2023-04-26T09:52:12.675Z,9.5
2023-04-26T09:53:28.912Z,9.6
2023-04-26T09:54:45.146Z,9.6
2023-04-26T09:56:01.397Z,9.7
2023-04-26T09:57:17.631Z,9.8
2023-04-26T09:58:33.871Z,9.9
2023-04-26T09:59:50.113Z,10.1
2023-04-26T10:01:06.358Z,10.2
2023-04-26T10:02:22.582Z,10.4
2023-04-26T10:03:38.825Z,10.5
2023-04-26T10:04:55.083Z,10.6
2023-04-26T10:06:11.311Z,10.7
2023-04-26T10:07:27.548Z,10.7
2023-04-26T10:08:42.811Z,10.8
2023-04-26T10:09:59.059Z,10.8
2023-04-26T10:11:15.286Z,10.7
2023-04-26T10:12:31.533Z,10.6
2023-04-26T10:13:47.764Z,10.6
2023-04-26T10:15:04.006Z,10.4
2023-04-26T10:16:20.254Z,10.2
2023-04-26T10:17:36.475Z,10.2
2023-04-26T10:18:52.715Z,10.1
2023-04-26T10:20:08.960Z,9.9
2023-04-26T10:21:25.196Z,9.7
2023-04-26T10:22:41.436Z,9.6
2023-04-26T10:23:57.677Z,9.7
2023-04-26T10:25:12.943Z,9.7
2023-04-26T10:26:29.187Z,9.7
2023-04-26T10:27:45.421Z,9.8
2023-04-26T10:29:01.666Z,9.7
2023-04-26T10:30:17.888Z,9.8
2023-04-26T10:31:34.145Z,10.2
2023-04-26T10:32:50.387Z,10.3
2023-04-26T10:34:06.622Z,10.4
2023-04-26T10:35:22.870Z,10.5
2023-04-26T10:36:39.100Z,10.5
2023-04-26T10:37:55.339Z,10.4
2023-04-26T10:39:11.581Z,10.3
2023-04-26T10:40:27.807Z,10.3
2023-04-26T10:41:43.074Z,10.3
2023-04-26T10:42:59.312Z,10.1
2023-04-26T10:44:15.559Z,10
2023-04-26T10:45:31.785Z,9.9
2023-04-26T10:46:48.042Z,9.9
2023-04-26T10:48:04.279Z,9.9
2023-04-26T10:49:20.520Z,9.9
2023-04-26T10:50:36.747Z,10
2023-04-26T10:51:52.981Z,9.9
2023-04-26T10:53:09.234Z,9.9
2023-04-26T10:54:25.469Z,9.8
2023-04-26T10:55:41.714Z,10
2023-04-26T10:56:57.000Z,10
2023-04-26T10:58:13.200Z,10
2023-04-26T10:59:29.449Z,10
2023-04-26T11:00:45.685Z,10.1
2023-04-26T11:02:01.926Z,10.2
2023-04-26T11:03:18.162Z,10.3
2023-04-26T11:04:34.405Z,10.4
2023-04-26T11:05:50.665Z,10.4
2023-04-26T11:07:06.902Z,10.4
2023-04-26T11:08:23.133Z,10.3
2023-04-26T11:09:39.382Z,10.4
2023-04-26T11:10:55.618Z,10.3
2023-04-26T11:12:11.869Z,10.3
2023-04-26T11:13:28.085Z,10.4
2023-04-26T11:14:43.351Z,10.5
2023-04-26T11:15:59.593Z,10.6
2023-04-26T11:17:15.822Z,10.6
2023-04-26T11:18:32.065Z,10.4
2023-04-26T11:19:48.313Z,10.4
2023-04-26T11:21:04.539Z,10.4
2023-04-26T11:22:20.796Z,10.4
2023-04-26T11:23:37.034Z,10.3
2023-04-26T11:24:53.263Z,10.3
2023-04-26T11:26:09.500Z,10.1
2023-04-26T11:27:25.744Z,10
2023-04-26T11:28:41.995Z,9.9
2023-04-26T11:29:58.218Z,9.9
2023-04-26T11:31:13.478Z,9.8
2023-04-26T11:32:29.717Z,9.9
2023-04-26T11:33:45.972Z,9.9
2023-04-26T11:35:02.204Z,10
2023-04-26T11:36:18.432Z,10.1
2023-04-26T11:37:34.677Z,10.3
2023-04-26T11:38:50.923Z,10.3
2023-04-26T11:40:07.164Z,10.4
2023-04-26T11:41:23.398Z,10.4
2023-04-26T11:42:39.633Z,10.5
2023-04-26T11:43:55.879Z,10.4
2023-04-26T11:45:12.113Z,10.5
2023-04-26T11:46:28.370Z,10.5
2023-04-26T11:47:43.611Z,10.5
2023-04-26T11:48:59.850Z,10.6
2023-04-26T11:50:16.098Z,10.6
2023-04-26T11:51:32.334Z,10.5
2023-04-26T11:52:48.580Z,10.4
2023-04-26T11:54:04.000Z,10.4
2023-04-26T11:55:21.053Z,10.5
2023-04-26T11:56:37.293Z,10.3
2023-04-26T11:57:53.539Z,10.3
2023-04-26T11:59:09.773Z,10.3
2023-04-26T12:00:26.012Z,10.2
2023-04-26T12:01:42.249Z,10.3
2023-04-26T12:02:58.503Z,10.3
2023-04-26T12:04:13.759Z,10.2
2023-04-26T12:05:29.984Z,10.2
2023-04-26T12:06:46.231Z,10.2
2023-04-26T12:08:02.479Z,10.2
2023-04-26T12:09:18.703Z,10.2
2023-04-26T12:10:34.960Z,10.3
2023-04-26T12:11:51.193Z,10.4
2023-04-26T12:13:07.431Z,10.5
2023-04-26T12:14:23.673Z,10.5
2023-04-26T12:15:39.904Z,10.5
2023-04-26T12:16:56.139Z,10.5
2023-04-26T12:18:12.398Z,10.6
2023-04-26T12:19:28.000Z,10.6
2023-04-26T12:20:43.882Z,10.7
2023-04-26T12:22:00.129Z,10.8
2023-04-26T12:23:16.361Z,10.8
2023-04-26T12:24:32.606Z,10.8
2023-04-26T12:25:48.850Z,10.8
2023-04-26T12:27:05.076Z,10.9
2023-04-26T12:28:21.317Z,11.1
2023-04-26T12:29:37.563Z,11.2
2023-04-26T12:30:53.812Z,11.3
2023-04-26T12:32:10.037Z,11.4
2023-04-26T12:33:26.284Z,11.5
2023-04-26T12:34:42.523Z,11.5
2023-04-26T12:35:58.763Z,11.4
2023-04-26T12:37:14.019Z,11.5
2023-04-26T12:38:30.258Z,11.4
2023-04-26T12:39:46.509Z,11.2
2023-04-26T12:41:02.745Z,11
2023-04-26T12:42:18.971Z,10.8
2023-04-26T12:43:35.230Z,10.8
2023-04-26T12:44:51.465Z,10.7
2023-04-26T12:46:07.703Z,10.8
2023-04-26T12:47:23.937Z,10.9
2023-04-26T12:48:40.186Z,11
2023-04-26T12:49:56.414Z,10.9
2023-04-26T12:51:12.656Z,11
2023-04-26T12:52:28.888Z,10.9
2023-04-26T12:53:44.159Z,10.8
2023-04-26T12:55:00.396Z,10.7
2023-04-26T12:56:16.629Z,10.7
2023-04-26T12:57:32.879Z,10.6
2023-04-26T12:58:49.111Z,10.6
2023-04-26T13:00:05.345Z,10.7
2023-04-26T13:01:21.596Z,10.7
2023-04-26T13:02:37.834Z,10.7
2023-04-26T13:03:54.067Z,10.7
2023-04-26T13:05:10.314Z,10.7
2023-04-26T13:06:26.558Z,10.7
2023-04-26T13:07:42.801Z,10.8
2023-04-26T13:08:59.030Z,10.8
2023-04-26T13:10:14.279Z,10.9
2023-04-26T13:11:30.534Z,10.9
2023-04-26T13:12:46.761Z,10.9
2023-04-26T13:14:03.013Z,10.9
2023-04-26T13:15:19.252Z,10.8
2023-04-26T13:16:35.486Z,10.7
2023-04-26T13:17:50.750Z,10.7
2023-04-26T13:19:06.990Z,10.7
2023-04-26T13:20:23.224Z,10.6
2023-04-26T13:21:39.468Z,10.6
2023-04-26T13:22:55.707Z,10.5
2023-04-26T13:24:11.952Z,10.5
2023-04-26T13:25:28.180Z,10.5
2023-04-26T13:26:44.417Z,10.5
2023-04-26T13:28:00.673Z,10.4
2023-04-26T13:29:16.909Z,10.3
2023-04-26T13:30:33.140Z,10.2
2023-04-26T13:31:49.377Z,10.1
2023-04-26T13:33:05.617Z,10.2
2023-04-26T13:34:20.890Z,10.2
2023-04-26T13:35:37.121Z,10.2
2023-04-26T13:36:53.354Z,10.2
2023-04-26T13:38:09.595Z,10.2
2023-04-26T13:39:25.850Z,10.2
2023-04-26T13:40:42.090Z,10.1
2023-04-26T13:41:58.328Z,10.1
2023-04-26T13:43:14.568Z,10.1
2023-04-26T13:44:30.796Z,10.1
2023-04-26T13:45:47.043Z,10.1
2023-04-26T13:47:03.275Z,10.1
2023-04-26T13:48:19.522Z,10.2
2023-04-26T13:49:35.764Z,10.2
2023-04-26T13:50:51.006Z,10.3
2023-04-26T13:52:07.253Z,10.4
2023-04-26T13:53:23.500Z,10.4
2023-04-26T13:54:39.732Z,10.4
2023-04-26T13:55:55.975Z,10.3
2023-04-26T13:57:12.213Z,10.3
2023-04-26T13:58:28.467Z,10.2
2023-04-26T13:59:44.684Z,10.2
2023-04-26T14:01:00.943Z,10.3
2023-04-26T14:02:17.176Z,10.3
2023-04-26T14:03:33.421Z,10.3
2023-04-26T14:04:49.654Z,10.2
2023-04-26T14:06:05.894Z,10.2
2023-04-26T14:07:21.148Z,10.2
2023-04-26T14:08:37.399Z,10.1
2023-04-26T14:09:53.635Z,10.1
2023-04-26T14:11:09.868Z,10.1
2023-04-26T14:12:26.116Z,10.1
2023-04-26T14:13:42.347Z,10.1
2023-04-26T14:14:58.594Z,10
2023-04-26T14:16:14.835Z,9.9
2023-04-26T14:17:31.065Z,9.9
2023-04-26T14:18:47.300Z,9.9
2023-04-26T14:20:03.542Z,9.8
2023-04-26T14:21:19.790Z,9.9
2023-04-26T14:22:36.037Z,9.8
2023-04-26T14:23:51.284Z,9.8
2023-04-26T14:25:07.522Z,9.7
2023-04-26T14:26:23.758Z,9.7
2023-04-26T14:27:39.998Z,9.7
2023-04-26T14:28:56.243Z,9.8
2023-04-26T14:30:12.487Z,9.8
2023-04-26T14:31:28.736Z,9.9
2023-04-26T14:32:44.960Z,9.9
2023-04-26T14:34:01.206Z,10
2023-04-26T14:35:17.441Z,9.9
2023-04-26T14:36:33.675Z,9.9
2023-04-26T14:37:49.916Z,9.9
2023-04-26T14:39:06.168Z,10
2023-04-26T14:40:21.411Z,10
2023-04-26T14:41:37.652Z,9.9
2023-04-26T14:42:53.894Z,10
2023-04-26T14:44:10.142Z,10.1
2023-04-26T14:45:26.380Z,10.2
2023-04-26T14:46:42.624Z,10.3
2023-04-26T14:47:58.860Z,10.4
2023-04-26T14:49:15.100Z,10.5
2023-04-26T14:50:31.337Z,10.5
2023-04-26T14:51:47.589Z,10.6
2023-04-26T14:53:03.828Z,10.5
2023-04-26T14:54:20.070Z,10.4
2023-04-26T14:55:36.304Z,10.3
2023-04-26T14:56:51.548Z,10.3
2023-04-26T14:58:07.799Z,10.2
2023-04-26T14:59:24.036Z,10.3
2023-04-26T15:00:40.272Z,10.3
2023-04-26T15:01:56.512Z,10.3
2023-04-26T15:03:12.763Z,10.3
2023-04-26T15:04:29.000Z,10.3
2023-04-26T15:05:45.240Z,10.3
2023-04-26T15:07:01.475Z,10.3
2023-04-26T15:08:17.711Z,10.3
2023-04-26T15:09:33.960Z,10.3
2023-04-26T15:10:50.192Z,10.3
2023-04-26T15:12:06.437Z,10.3
2023-04-26T15:13:21.687Z,10.4
2023-04-26T15:14:37.937Z,10.5
2023-04-26T15:15:54.164Z,10.4
2023-04-26T15:17:10.404Z,10.4
2023-04-26T15:18:26.642Z,10.4
2023-04-26T15:19:42.897Z,10.4
2023-04-26T15:20:59.139Z,10.4
2023-04-26T15:22:15.360Z,10.4
2023-04-26T15:23:31.605Z,10.3
2023-04-26T15:24:47.856Z,10.3
2023-04-26T15:26:04.091Z,10.2
2023-04-26T15:27:20.321Z,10.2
2023-04-26T15:28:36.563Z,10.1
2023-04-26T15:29:51.828Z,10.1
2023-04-26T15:31:08.061Z,10.1
2023-04-26T15:32:24.313Z,10.1
2023-04-26T15:33:40.550Z,10.2
2023-04-26T15:34:56.000Z,10.2
2023-04-26T15:36:13.031Z,10.1
2023-04-26T15:37:29.260Z,9.9
2023-04-26T15:38:45.510Z,9.9
2023-04-26T15:40:01.752Z,9.9
2023-04-26T15:41:17.978Z,9.9
2023-04-26T15:42:34.231Z,9.9
2023-04-26T15:43:50.455Z,9.8
2023-04-26T15:45:06.707Z,9.8
2023-04-26T15:46:21.962Z,9.8
2023-04-26T15:47:38.196Z,9.8
2023-04-26T15:48:54.450Z,9.8
2023-04-26T15:50:10.689Z,9.8
2023-04-26T15:51:26.923Z,9.8
2023-04-26T15:52:43.159Z,9.8
2023-04-26T15:53:59.406Z,9.9
2023-04-26T15:55:15.646Z,9.9
2023-04-26T15:56:31.885Z,9.9
2023-04-26T15:57:48.121Z,10
2023-04-26T15:59:04.361Z,10
2023-04-26T16:00:20.595Z,9.9
2023-04-26T16:01:36.844Z,10
2023-04-26T16:02:52.092Z,10
2023-04-26T16:04:08.340Z,10
2023-04-26T16:05:24.585Z,10
2023-04-26T16:06:40.808Z,10
2023-04-26T16:07:57.059Z,10
2023-04-26T16:09:13.303Z,10
2023-04-26T16:10:29.536Z,10
2023-04-26T16:11:45.765Z,9.9
2023-04-26T16:13:02.008Z,9.9
2023-04-26T16:14:18.258Z,9.9
2023-04-26T16:15:34.502Z,9.9
2023-04-26T16:16:50.737Z,10
2023-04-26T16:18:06.968Z,10
2023-04-26T16:19:22.238Z,9.9
2023-04-26T16:20:38.476Z,9.9
2023-04-26T16:21:54.708Z,9.8
2023-04-26T16:23:10.954Z,9.8
2023-04-26T16:24:27.188Z,9.9
2023-04-26T16:25:43.429Z,9.8
2023-04-26T16:26:59.672Z,9.9
2023-04-26T16:28:15.904Z,9.9
2023-04-26T16:29:32.146Z,9.9
2023-04-26T16:30:48.394Z,9.9
2023-04-26T16:32:04.631Z,9.8
2023-04-26T16:33:20.869Z,9.8
2023-04-26T16:34:37.108Z,9.7
2023-04-26T16:35:52.373Z,9.7
2023-04-26T16:37:08.600Z,9.7
2023-04-26T16:38:24.860Z,9.7
2023-04-26T16:39:41.095Z,9.8
2023-04-26T16:40:57.336Z,9.8
2023-04-26T16:42:13.569Z,9.7
2023-04-26T16:43:29.807Z,9.7
2023-04-26T16:44:46.052Z,9.7
2023-04-26T16:46:02.291Z,9.7
2023-04-26T16:47:18.542Z,9.7
2023-04-26T16:48:34.771Z,9.8
2023-04-26T16:49:51.006Z,9.8
2023-04-26T16:51:07.246Z,9.8
2023-04-26T16:52:22.497Z,9.8
2023-04-26T16:53:38.762Z,9.8
2023-04-26T16:54:54.990Z,9.7
2023-04-26T16:56:11.233Z,9.7
2023-04-26T16:57:27.463Z,9.7
2023-04-26T16:58:43.697Z,9.7
2023-04-26T16:59:59.940Z,9.7
2023-04-26T17:01:16.187Z,9.6
2023-04-26T17:02:32.435Z,9.6
2023-04-26T17:03:48.655Z,9.6
2023-04-26T17:05:04.911Z,9.6
2023-04-26T17:06:21.139Z,9.6
2023-04-26T17:07:37.376Z,9.5
2023-04-26T17:08:52.650Z,9.5
2023-04-26T17:10:08.879Z,9.5
2023-04-26T17:11:25.119Z,9.5
2023-04-26T17:12:41.351Z,9.5
2023-04-26T17:13:57.597Z,9.5
2023-04-26T17:15:13.836Z,9.5
2023-04-26T17:16:30.074Z,9.6
2023-04-26T17:17:46.318Z,9.5
2023-04-26T17:19:02.568Z,9.5
2023-04-26T17:20:18.796Z,9.5
2023-04-26T17:21:35.050Z,9.5
2023-04-26T17:22:51.282Z,9.5
2023-04-26T17:24:07.527Z,9.4
2023-04-26T17:25:22.779Z,9.4
2023-04-26T17:26:39.014Z,9.4
2023-04-26T17:27:55.248Z,9.4